createdAt,value
2022-08-16T00:00:22.572Z,90.90
2022-08-16T00:05:27.597Z,90.90
2022-08-16T00:10:37.987Z,90.80
2022-08-16T00:15:51.986Z,90.80
2022-08-16T00:20:57.340Z,90.80
2022-08-16T00:26:33.638Z,90.70
2022-08-16T00:31:24.017Z,90.60
2022-08-16T00:36:27.452Z,90.60
2022-08-16T00:41:32.347Z,90.50
2022-08-16T00:46:52.679Z,90.60
2022-08-16T00:51:56.578Z,90.70
2022-08-16T00:57:01.328Z,90.70
2022-08-16T01:02:31.406Z,90.70
2022-08-16T01:07:51.401Z,90.70
2022-08-16T01:12:52.943Z,90.60
2022-08-16T01:17:58.468Z,90.50
2022-08-16T01:23:08.750Z,90.60
2022-08-16T01:28:19.788Z,90.80
2022-08-16T01:33:23.545Z,91.10
2022-08-16T01:38:30.647Z,91.20
2022-08-16T01:43:36.875Z,91.20
2022-08-16T01:48:39.816Z,91.20
2022-08-16T01:53:42.698Z,91.30
2022-08-16T01:58:48.045Z,91.00
2022-08-16T02:03:51.775Z,90.90
2022-08-16T02:08:54.693Z,91.00
2022-08-16T02:13:58.488Z,91.20
2022-08-16T02:19:01.018Z,91.30
2022-08-16T02:24:04.133Z,91.40
2022-08-16T02:29:32.114Z,91.40
2022-08-16T02:34:40.934Z,91.40
2022-08-16T02:39:43.973Z,91.40
2022-08-16T02:44:48.876Z,91.40
2022-08-16T02:50:25.853Z,91.30
2022-08-16T02:55:15.735Z,91.20
2022-08-16T03:00:34.452Z,91.30
2022-08-16T03:05:37.955Z,91.40
2022-08-16T03:10:41.076Z,91.40
2022-08-16T03:15:45.995Z,91.40
2022-08-16T03:20:55.527Z,91.30
2022-08-16T03:25:58.712Z,91.30
2022-08-16T03:31:03.524Z,91.50
2022-08-16T03:36:29.718Z,91.50
2022-08-16T03:41:49.586Z,91.50
2022-08-16T03:46:53.273Z,91.60
2022-08-16T03:51:55.643Z,91.60
2022-08-16T03:56:58.961Z,91.70
2022-08-16T04:02:07.194Z,91.70
2022-08-16T04:07:16.415Z,91.50
2022-08-16T04:13:04.343Z,91.50
2022-08-16T04:17:43.303Z,91.50
2022-08-16T04:22:45.859Z,91.50
2022-08-16T04:27:54.407Z,91.50
2022-08-16T04:32:59.956Z,91.50
2022-08-16T04:38:11.121Z,91.50
2022-08-16T04:43:24.145Z,91.50
2022-08-16T04:48:34.046Z,91.60
2022-08-16T04:53:37.117Z,91.80
2022-08-16T04:58:46.615Z,91.90
2022-08-16T05:03:59.657Z,92.00
2022-08-16T05:09:04.604Z,92.30
2022-08-16T05:14:07.493Z,92.60
2022-08-16T05:19:16.367Z,92.80
2022-08-16T05:24:22.145Z,92.80
2022-08-16T05:30:00.693Z,92.40
2022-08-16T05:34:51.381Z,91.70
2022-08-16T05:39:55.253Z,91.50
2022-08-16T05:44:58.086Z,91.40
2022-08-16T05:50:03.440Z,91.30
2022-08-16T05:55:07.084Z,91.50
2022-08-16T06:00:13.757Z,91.60
2022-08-16T06:05:26.893Z,91.70
2022-08-16T06:10:32.507Z,91.70
2022-08-16T06:15:35.975Z,91.80
2022-08-16T06:20:55.846Z,91.80
2022-08-16T06:25:58.755Z,91.90
2022-08-16T06:31:01.987Z,92.00
2022-08-16T06:36:06.772Z,91.90
2022-08-16T06:41:14.336Z,91.90
2022-08-16T06:46:31.521Z,92.00
2022-08-16T06:51:45.195Z,92.20
2022-08-16T06:56:52.346Z,92.30
2022-08-16T07:01:58.386Z,92.30
2022-08-16T07:07:03.210Z,92.20
2022-08-16T07:12:06.203Z,92.10
2022-08-16T07:17:12.670Z,92.20
2022-08-16T07:22:37.069Z,92.10
2022-08-16T07:27:40.667Z,92.20
2022-08-16T07:32:51.513Z,93.10
2022-08-16T07:37:55.891Z,93.80
2022-08-16T07:42:58.318Z,94.20
2022-08-16T07:48:01.049Z,93.30
2022-08-16T07:53:16.257Z,91.80
2022-08-16T07:58:34.903Z,90.50
2022-08-16T08:03:39.248Z,89.20
2022-08-16T08:08:51.668Z,90.00
2022-08-16T08:13:56.821Z,88.40
2022-08-16T08:19:02.796Z,86.50
2022-08-16T08:24:09.350Z,81.90
2022-08-16T08:29:12.181Z,80.70
2022-08-16T08:34:15.157Z,78.50
2022-08-16T08:39:23.159Z,73.80
2022-08-16T08:44:28.748Z,72.10
2022-08-16T08:49:46.719Z,72.70
2022-08-16T08:54:59.781Z,73.20
2022-08-16T09:00:02.547Z,69.40
2022-08-16T09:05:15.421Z,69.50
2022-08-16T09:10:21.688Z,67.50
2022-08-16T09:15:24.374Z,64.20
2022-08-16T09:20:30.019Z,62.90
2022-08-16T09:25:35.385Z,61.60
2022-08-16T09:30:43.991Z,60.00
2022-08-16T09:35:53.300Z,60.90
2022-08-16T09:40:58.749Z,61.10
2022-08-16T09:46:02.991Z,58.80
2022-08-16T09:51:05.636Z,60.10
2022-08-16T09:56:22.970Z,58.50
2022-08-16T10:01:29.243Z,56.60
2022-08-16T10:06:34.221Z,56.70
2022-08-16T10:11:50.430Z,55.90
2022-08-16T10:16:59.668Z,55.30
2022-08-16T10:22:05.652Z,55.20
2022-08-16T10:27:26.737Z,56.70
2022-08-16T10:32:32.886Z,52.90
2022-08-16T10:37:36.268Z,52.00
2022-08-16T10:42:41.294Z,53.50
2022-08-16T10:47:44.773Z,52.00
2022-08-16T10:52:49.963Z,52.90
2022-08-16T10:57:56.793Z,52.00
2022-08-16T11:03:01.465Z,51.30
2022-08-16T11:08:35.081Z,53.00
2022-08-16T11:19:12.271Z,49.60
2022-08-16T11:24:39.896Z,50.60
2022-08-16T11:29:39.912Z,48.20
2022-08-16T11:35:06.100Z,49.20
2022-08-16T11:40:07.945Z,50.30
2022-08-16T11:45:13.516Z,49.10
2022-08-16T11:50:17.792Z,49.70
2022-08-16T11:55:20.557Z,49.50
2022-08-16T12:00:33.996Z,49.70
2022-08-16T12:05:54.326Z,49.10
2022-08-16T12:10:59.235Z,50.60
2022-08-16T12:16:05.262Z,48.30
2022-08-16T12:21:07.439Z,47.30
2022-08-16T12:26:13.011Z,51.70
2022-08-16T12:31:17.699Z,48.90
2022-08-16T12:36:21.401Z,47.80
2022-08-16T12:41:24.486Z,46.70
2022-08-16T12:46:31.012Z,46.00
2022-08-16T12:51:59.797Z,46.60
2022-08-16T12:56:58.667Z,46.90
2022-08-16T13:02:03.265Z,46.20
2022-08-16T13:07:08.843Z,46.70
2022-08-16T13:12:12.344Z,46.90
2022-08-16T13:17:19.517Z,47.40
2022-08-16T13:22:23.714Z,45.60
2022-08-16T13:28:02.431Z,46.30
2022-08-16T13:32:52.387Z,46.80
2022-08-16T13:37:55.715Z,46.10
2022-08-16T13:42:59.688Z,46.70
2022-08-16T13:48:04.736Z,45.90
2022-08-16T13:53:07.348Z,45.50
2022-08-16T13:58:36.758Z,45.50
2022-08-16T14:03:34.389Z,44.30
2022-08-16T14:08:37.069Z,44.40
2022-08-16T14:13:45.151Z,44.90
2022-08-16T14:18:49.293Z,44.70
2022-08-16T14:23:52.806Z,45.10
2022-08-16T14:28:56.976Z,44.70
2022-08-16T14:34:05.869Z,44.10
2022-08-16T14:39:13.671Z,44.60
2022-08-16T14:44:16.071Z,45.10
2022-08-16T14:49:19.880Z,46.40
2022-08-16T14:54:28.624Z,46.60
2022-08-16T14:59:34.405Z,47.30
2022-08-16T15:04:48.488Z,46.80
2022-08-16T15:10:01.013Z,47.10
2022-08-16T15:15:12.985Z,47.40
2022-08-16T15:20:20.602Z,47.20
2022-08-16T15:25:27.517Z,47.80
2022-08-16T15:31:00.609Z,48.00
2022-08-16T15:35:58.456Z,48.30
2022-08-16T15:41:01.538Z,49.00
2022-08-16T15:46:04.335Z,49.70
2022-08-16T15:51:09.015Z,50.00
2022-08-16T15:56:12.172Z,49.90
2022-08-16T16:01:17.144Z,50.20
2022-08-16T16:06:28.784Z,50.20
2022-08-16T16:11:32.697Z,50.80
2022-08-16T16:16:35.197Z,51.60
2022-08-16T16:21:39.036Z,51.70
2022-08-16T16:26:41.917Z,52.00
2022-08-16T16:31:59.244Z,52.40
2022-08-16T16:37:04.934Z,52.60
2022-08-16T16:42:29.118Z,52.60
2022-08-16T16:47:48.314Z,53.60
2022-08-16T16:52:53.115Z,53.00
2022-08-16T16:57:56.661Z,53.50
2022-08-16T17:02:59.776Z,53.90
2022-08-16T17:08:07.073Z,53.90
2022-08-16T17:13:09.820Z,53.40
2022-08-16T17:19:14.524Z,53.40
2022-08-16T17:23:59.550Z,53.60
2022-08-16T17:29:10.954Z,54.10
2022-08-16T17:34:29.349Z,54.50
2022-08-16T17:40:00.071Z,54.80
2022-08-16T17:45:00.002Z,55.50
2022-08-16T17:50:03.077Z,55.70
2022-08-16T17:55:10.462Z,56.00
2022-08-16T18:00:18.275Z,56.10
2022-08-16T18:05:24.357Z,56.20
2022-08-16T18:10:33.508Z,56.30
2022-08-16T18:15:40.755Z,56.40
2022-08-16T18:20:44.627Z,56.60
2022-08-16T18:25:53.818Z,56.80
2022-08-16T18:31:00.769Z,56.90
2022-08-16T18:36:20.055Z,57.00
2022-08-16T18:41:28.070Z,56.60
2022-08-16T18:46:31.807Z,56.30
2022-08-16T18:51:36.215Z,56.70
2022-08-16T18:56:57.110Z,56.70
2022-08-16T19:02:05.214Z,56.80
2022-08-16T19:07:09.257Z,57.00
2022-08-16T19:12:16.299Z,57.20
2022-08-16T19:17:19.811Z,57.50
2022-08-16T19:22:52.110Z,57.70
2022-08-16T19:27:52.100Z,58.10
2022-08-16T19:32:55.100Z,58.50
2022-08-16T19:37:57.778Z,58.90
2022-08-16T19:43:02.349Z,59.30
2022-08-16T19:48:06.012Z,59.90
2022-08-16T19:53:18.958Z,60.50
2022-08-16T19:58:24.541Z,61.20
2022-08-16T20:03:27.085Z,61.80
2022-08-16T20:08:29.822Z,61.80
2022-08-16T20:13:33.978Z,62.10
2022-08-16T20:18:36.944Z,62.90
2022-08-16T20:23:39.517Z,63.50
2022-08-16T20:28:54.204Z,64.10
2022-08-16T20:33:57.327Z,64.50
2022-08-16T20:38:59.698Z,64.50
2022-08-16T20:44:04.517Z,64.60
2022-08-16T20:49:07.162Z,65.10
2022-08-16T20:54:12.480Z,65.30
2022-08-16T20:59:19.125Z,65.70
2022-08-16T21:04:24.889Z,66.00
2022-08-16T21:09:29.964Z,66.20
2022-08-16T21:14:34.406Z,66.30
2022-08-16T21:19:37.617Z,66.80
2022-08-16T21:24:40.313Z,66.80
2022-08-16T21:29:44.466Z,67.50
2022-08-16T21:34:48.820Z,69.20
2022-08-16T21:39:51.501Z,68.50
2022-08-16T21:44:55.677Z,68.80
2022-08-16T21:49:58.260Z,69.40
2022-08-16T21:55:00.843Z,69.30
2022-08-16T22:00:09.846Z,69.70
2022-08-16T22:05:12.473Z,70.20
2022-08-16T22:11:05.055Z,69.90
2022-08-16T22:15:40.030Z,70.30
2022-08-16T22:20:43.213Z,70.90
2022-08-16T22:25:47.333Z,70.60
2022-08-16T22:30:52.676Z,70.30
2022-08-16T22:35:56.749Z,70.30
2022-08-16T22:40:59.951Z,70.00
2022-08-16T22:46:04.016Z,70.10
2022-08-16T22:51:07.317Z,70.30
2022-08-16T22:56:10.356Z,70.30
2022-08-16T23:01:16.495Z,70.40
2022-08-16T23:06:19.479Z,70.80
2022-08-16T23:11:24.373Z,70.60
2022-08-16T23:16:32.323Z,71.00
2022-08-16T23:22:09.504Z,71.50
2022-08-16T23:27:12.030Z,72.30
2022-08-16T23:32:16.079Z,71.20
2022-08-16T23:37:18.556Z,71.50
2022-08-16T23:42:41.793Z,71.50
2022-08-16T23:47:45.063Z,71.40
2022-08-16T23:53:01.584Z,71.60
2022-08-16T23:58:04.512Z,72.40
